Time;durP1;ratioP1;P1;durP2;ratioP2;P2;SDS_P1;SDS_P2;PMS_P1;PMS_P2;Temp;Humidity;BMP_temperature;BMP_pressure;BME280_temperature;BME280_humidity;BME280_pressure;Samples;Min_cycle;Max_cycle;Signal;HPM_P1;HPM_P2
2022/01/19 00:01:26;;;;;;;16.70;9.02;;;21.00;55.10;;;;;;4950423;28;87748;-82
2022/01/19 00:03:52;;;;;;;18.58;10.05;;;20.90;54.90;;;;;;4952391;28;87936;-81
2022/01/19 00:06:18;;;;;;;16.70;9.63;;;20.90;54.90;;;;;;4952439;28;87474;-84
2022/01/19 00:08:44;;;;;;;14.52;9.13;;;20.90;54.90;;;;;;4952943;28;87193;-84
2022/01/19 00:11:10;;;;;;;15.93;9.13;;;20.90;54.90;;;;;;4951989;28;88746;-84
2022/01/19 00:13:36;;;;;;;16.00;8.73;;;20.90;54.90;;;;;;4952083;28;88762;-84
2022/01/19 00:16:04;;;;;;;16.13;8.85;;;20.90;54.90;;;;;;4954202;28;87480;-84
2022/01/19 00:18:37;;;;;;;13.98;8.88;;;20.90;54.90;;;;;;4956237;28;87603;-84
2022/01/19 00:21:03;;;;;;;17.05;8.50;;;20.90;54.90;;;;;;4956867;28;88330;-83
2022/01/19 00:23:29;;;;;;;14.18;8.93;;;20.90;54.90;;;;;;4956725;28;87456;-83
2022/01/19 00:25:55;;;;;;;13.50;8.82;;;20.90;54.70;;;;;;4956470;28;87916;-84
2022/01/19 00:28:22;;;;;;;13.48;7.72;;;20.90;54.80;;;;;;4956143;28;86305;-84
2022/01/19 00:30:48;;;;;;;14.45;8.63;;;20.90;54.90;;;;;;4955499;28;89590;-82
2022/01/19 00:33:14;;;;;;;14.00;8.68;;;20.80;54.80;;;;;;4956363;28;87488;-83
2022/01/19 00:35:41;;;;;;;16.92;8.88;;;20.90;54.80;;;;;;4955752;28;89000;-83
2022/01/19 00:38:08;;;;;;;15.75;8.75;;;20.80;54.60;;;;;;4954381;28;89637;-83
2022/01/19 00:40:35;;;;;;;17.63;9.13;;;20.80;54.60;;;;;;4955181;28;87956;-84
2022/01/19 00:43:01;;;;;;;13.10;8.38;;;20.80;54.50;;;;;;4955659;28;87781;-84
2022/01/19 00:45:27;;;;;;;14.82;8.80;;;20.80;54.50;;;;;;4955455;28;87121;-86
2022/01/19 00:47:52;;;;;;;13.55;8.55;;;20.80;54.50;;;;;;4951825;28;89609;-83
2022/01/19 00:50:25;;;;;;;14.80;8.63;;;20.80;54.60;;;;;;4954751;28;88649;-83
2022/01/19 00:52:51;;;;;;;17.27;9.05;;;20.80;54.50;;;;;;4954524;28;86918;-84
2022/01/19 00:55:23;;;;;;;12.80;8.30;;;20.80;54.70;;;;;;4947165;28;87768;-83
2022/01/19 00:57:49;;;;;;;13.43;8.23;;;20.80;54.60;;;;;;4954648;28;87472;-84
2022/01/19 01:00:21;;;;;;;12.57;8.50;;;20.80;54.40;;;;;;4953789;28;88681;-83
2022/01/19 01:02:47;;;;;;;13.27;8.52;;;20.70;54.40;;;;;;4952408;28;88694;-83
2022/01/19 01:05:13;;;;;;;15.90;8.65;;;20.80;54.50;;;;;;4953061;28;86977;-83
2022/01/19 01:07:40;;;;;;;15.75;9.25;;;20.80;54.60;;;;;;4952531;28;87955;-83
2022/01/19 01:10:08;;;;;;;12.30;7.97;;;20.80;54.30;;;;;;4952550;28;88136;-83
2022/01/19 01:12:47;;;;;;;16.27;8.90;;;20.70;54.40;;;;;;4953413;28;89287;-83
2022/01/19 01:15:35;;;;;;;12.82;8.75;;;20.70;54.40;;;;;;4953632;28;87948;-85
2022/01/19 01:20:33;;;;;;;;;;;20.70;54.30;;;;;;4951641;28;88164;-85
2022/01/19 01:23:00;;;;;;;12.07;8.32;;;20.70;54.30;;;;;;4951165;28;87437;-84
2022/01/19 01:25:26;;;;;;;13.90;8.00;;;20.70;54.20;;;;;;4951849;28;88750;-83
2022/01/19 01:27:51;;;;;;;12.07;7.85;;;20.70;54.30;;;;;;4950556;28;87244;-83
2022/01/19 01:30:17;;;;;;;12.63;8.40;;;20.70;54.20;;;;;;4950970;28;87732;-84
2022/01/19 01:32:43;;;;;;;12.70;8.05;;;20.70;54.20;;;;;;4951288;28;88430;-83
2022/01/19 01:35:09;;;;;;;12.25;7.88;;;20.70;54.20;;;;;;4951976;28;88017;-83
2022/01/19 01:37:35;;;;;;;13.23;8.02;;;20.60;54.30;;;;;;4966531;28;89717;-83
2022/01/19 01:40:03;;;;;;;14.15;8.45;;;20.70;54.10;;;;;;4952675;28;87769;-84
2022/01/19 01:42:29;;;;;;;15.57;8.75;;;20.60;54.10;;;;;;4952449;28;88190;-84
2022/01/19 01:44:58;;;;;;;12.00;7.95;;;20.60;54.20;;;;;;4952533;28;87668;-83
2022/01/19 01:47:25;;;;;;;12.00;7.93;;;20.60;54.00;;;;;;4952847;28;87757;-83
2022/01/19 01:55:13;;;;;;;11.88;7.95;;;20.60;54.10;;;;;;4952061;28;87367;-83
2022/01/19 01:57:39;;;;;;;13.35;7.88;;;20.60;54.00;;;;;;4950979;28;87674;-83
2022/01/19 02:00:08;;;;;;;12.32;8.70;;;20.60;54.10;;;;;;4951182;28;87747;-83
2022/01/19 02:02:34;;;;;;;10.98;7.82;;;20.60;54.00;;;;;;4951659;28;88964;-84
2022/01/19 02:05:00;;;;;;;11.00;7.90;;;20.60;53.80;;;;;;4951902;28;87828;-83
2022/01/19 02:07:40;;;;;;;12.43;7.55;;;20.60;53.80;;;;;;4949304;28;88292;-83
2022/01/19 02:10:08;;;;;;;12.50;7.55;;;20.60;53.80;;;;;;4951272;28;88800;-83
2022/01/19 02:23:52;;;;;;;11.70;7.65;;;20.50;53.80;;;;;;4951622;28;87138;-83
2022/01/19 02:26:29;;;;;;;12.00;7.93;;;20.50;53.70;;;;;;4951129;28;87678;-83
2022/01/19 02:29:15;;;;;;;11.98;7.30;;;20.50;53.70;;;;;;4950946;28;87445;-84
2022/01/19 02:42:38;;;;;;;11.48;7.25;;;20.50;53.40;;;;;;4950428;28;88446;-82
2022/01/19 02:50:15;;;;;;;11.57;7.82;;;20.40;53.50;;;;;;4950021;28;87373;-83
2022/01/19 02:52:40;;;;;;;10.90;7.30;;;20.40;53.40;;;;;;4950457;28;87813;-85
2022/01/19 02:55:06;;;;;;;11.05;7.22;;;20.40;53.50;;;;;;4951073;28;87511;-85
2022/01/19 02:57:35;;;;;;;12.57;8.07;;;20.40;53.40;;;;;;4950946;28;87505;-83
2022/01/19 03:08:45;;;;;;;10.07;7.32;;;20.40;53.40;;;;;;4949725;28;87950;-84
2022/01/19 03:11:12;;;;;;;10.30;6.68;;;20.40;53.40;;;;;;4949595;28;87378;-83
2022/01/19 03:13:38;;;;;;;9.90;6.97;;;20.40;53.40;;;;;;4949416;28;88291;-83
2022/01/19 03:16:04;;;;;;;9.10;6.82;;;20.40;53.60;;;;;;4949428;28;88659;-83
2022/01/19 03:18:30;;;;;;;12.18;7.47;;;20.40;53.40;;;;;;4949727;28;88157;-83
2022/01/19 03:20:55;;;;;;;9.52;6.70;;;20.40;53.40;;;;;;4950390;28;87835;-82
2022/01/19 03:23:21;;;;;;;10.07;7.03;;;20.40;53.30;;;;;;4950322;28;88066;-83
2022/01/19 03:25:51;;;;;;;8.52;6.90;;;20.40;53.20;;;;;;4950866;28;87308;-84
2022/01/19 03:28:18;;;;;;;11.75;7.70;;;20.40;53.90;;;;;;4950075;28;87860;-83
2022/01/19 03:30:45;;;;;;;10.40;7.40;;;20.30;53.30;;;;;;4950085;28;87515;-86
2022/01/19 03:33:12;;;;;;;10.25;6.68;;;20.40;53.30;;;;;;4949323;28;89124;-83
2022/01/19 03:35:38;;;;;;;9.45;7.05;;;20.30;53.30;;;;;;4939306;28;90754;-83
2022/01/19 03:38:23;;;;;;;9.32;7.40;;;20.30;53.20;;;;;;4948968;28;88063;-85
2022/01/19 03:40:49;;;;;;;8.80;7.15;;;20.30;53.10;;;;;;4949680;28;87021;-84
2022/01/19 03:43:15;;;;;;;9.68;7.13;;;20.30;53.10;;;;;;4949661;28;87445;-83
2022/01/19 03:45:50;;;;;;;9.45;7.00;;;20.30;53.00;;;;;;4949486;28;87271;-82
2022/01/19 03:50:41;;;;;;;8.85;6.47;;;20.30;53.20;;;;;;4950784;28;87036;-84
2022/01/19 03:53:07;;;;;;;8.90;6.50;;;20.30;53.00;;;;;;4953567;28;87703;-82
2022/01/19 03:55:33;;;;;;;9.73;6.80;;;20.30;53.10;;;;;;4952895;28;87790;-83
2022/01/19 03:57:58;;;;;;;9.02;6.65;;;20.30;53.20;;;;;;4953972;28;88770;-85
2022/01/19 04:00:24;;;;;;;9.55;6.75;;;20.30;53.10;;;;;;4951699;28;88063;-82
2022/01/19 04:02:49;;;;;;;9.77;7.20;;;20.30;53.10;;;;;;4952609;28;88153;-84
2022/01/19 04:05:24;;;;;;;10.02;7.20;;;20.30;53.10;;;;;;4953007;28;87205;-82
2022/01/19 04:08:07;;;;;;;8.98;6.63;;;20.30;53.30;;;;;;4952949;28;87963;-82
2022/01/19 04:10:33;;;;;;;9.13;7.15;;;20.30;53.10;;;;;;4952278;28;87737;-83
2022/01/19 04:13:10;;;;;;;8.13;6.70;;;20.30;53.00;;;;;;4951780;28;88119;-82
2022/01/19 04:15:36;;;;;;;8.80;6.70;;;20.30;53.10;;;;;;4952582;28;87530;-85
2022/01/19 04:18:03;;;;;;;9.52;6.68;;;20.20;53.00;;;;;;4953520;28;87607;-83
2022/01/19 04:20:33;;;;;;;8.70;6.35;;;20.20;53.00;;;;;;4951433;28;87408;-84
2022/01/19 04:22:59;;;;;;;8.70;6.53;;;20.20;52.90;;;;;;4952699;28;89970;-82
2022/01/19 04:25:24;;;;;;;9.32;6.80;;;20.20;53.10;;;;;;4953073;28;88609;-83
2022/01/19 04:27:50;;;;;;;10.63;6.78;;;20.20;53.10;;;;;;4951834;28;87606;-84
2022/01/19 04:30:16;;;;;;;8.70;6.32;;;20.20;53.10;;;;;;4953015;28;87234;-84
2022/01/19 04:35:29;;;;;;;9.55;6.70;;;20.20;53.00;;;;;;4951572;28;87584;-84
2022/01/19 04:49:16;;;;;;;9.02;6.18;;;20.20;52.90;;;;;;4952173;28;88012;-82
2022/01/19 04:54:44;;;;;;;8.43;6.22;;;20.20;52.90;;;;;;4951727;28;87744;-84
2022/01/19 05:05:37;;;;;;;9.13;6.38;;;20.20;52.90;;;;;;4952243;28;87531;-86
2022/01/19 05:08:14;;;;;;;9.60;6.90;;;20.20;53.00;;;;;;4952956;28;87812;-86
2022/01/19 05:15:52;;;;;;;9.20;6.47;;;20.10;52.80;;;;;;4953173;28;88757;-87
2022/01/19 05:18:18;;;;;;;10.40;6.55;;;20.10;52.80;;;;;;4952806;28;88478;-86
2022/01/19 05:20:45;;;;;;;7.55;6.35;;;20.10;52.80;;;;;;4953288;28;87622;-86
2022/01/19 05:23:12;;;;;;;7.30;5.57;;;20.10;53.30;;;;;;4953263;28;87566;-87
2022/01/19 05:25:38;;;;;;;7.82;5.85;;;20.10;52.90;;;;;;4952908;28;87713;-86
2022/01/19 05:28:04;;;;;;;6.72;5.55;;;20.10;52.80;;;;;;4951757;28;87228;-86
2022/01/19 05:30:30;;;;;;;8.80;6.18;;;20.10;52.90;;;;;;4953489;28;87038;-86
2022/01/19 05:32:56;;;;;;;7.75;6.13;;;20.10;52.90;;;;;;4953027;28;86781;-84
2022/01/19 05:35:21;;;;;;;8.85;6.57;;;20.10;52.80;;;;;;4952458;28;87469;-83
2022/01/19 05:37:47;;;;;;;10.10;6.70;;;20.10;52.70;;;;;;4951719;28;87856;-86
2022/01/19 05:40:14;;;;;;;7.47;6.03;;;20.10;52.80;;;;;;4952000;28;88649;-86
2022/01/19 05:42:40;;;;;;;7.95;6.60;;;20.10;53.00;;;;;;4952948;28;87309;-86
2022/01/19 05:45:06;;;;;;;7.32;6.22;;;20.10;52.80;;;;;;4952543;28;87696;-87
2022/01/19 05:47:32;;;;;;;6.63;5.93;;;20.10;52.60;;;;;;4951031;28;88324;-87
2022/01/19 05:49:58;;;;;;;8.32;5.88;;;20.10;52.80;;;;;;4951502;28;87684;-86
2022/01/19 05:52:24;;;;;;;7.45;6.25;;;20.10;52.80;;;;;;4952008;28;87598;-88
2022/01/19 05:55:08;;;;;;;9.13;6.30;;;20.10;52.80;;;;;;4950442;28;90530;-87
2022/01/19 05:57:33;;;;;;;6.68;5.85;;;20.00;52.60;;;;;;4952509;28;88280;-86
2022/01/19 05:59:59;;;;;;;7.15;5.85;;;20.00;52.80;;;;;;4952582;28;87911;-86
2022/01/19 06:02:25;;;;;;;6.35;5.47;;;20.00;52.70;;;;;;4951963;28;86898;-86
2022/01/19 06:04:50;;;;;;;8.05;6.28;;;20.00;52.60;;;;;;4953242;28;88688;-86
2022/01/19 06:07:16;;;;;;;7.30;5.65;;;20.00;51.40;;;;;;4952410;28;88847;-86
2022/01/19 06:12:12;;;;;;;7.23;5.60;;;20.00;52.50;;;;;;4951382;28;87733;-83
2022/01/19 06:14:43;;;;;;;8.05;5.25;;;20.00;52.80;;;;;;4951027;28;88334;-82
2022/01/19 06:17:11;;;;;;;7.13;5.70;;;20.10;52.60;;;;;;4951271;28;87764;-86
2022/01/19 06:19:37;;;;;;;11.50;5.70;;;20.10;52.90;;;;;;4951516;28;87458;-87
2022/01/19 06:22:16;;;;;;;5.25;4.75;;;20.20;52.80;;;;;;4951682;28;87995;-86
2022/01/19 06:24:42;;;;;;;5.90;4.80;;;20.30;53.00;;;;;;4951691;28;87458;-86
2022/01/19 06:27:08;;;;;;;7.95;5.60;;;20.30;53.20;;;;;;4951141;28;87610;-87
2022/01/19 06:29:33;;;;;;;6.45;5.15;;;20.30;53.30;;;;;;4951024;28;88880;-86
2022/01/19 06:32:00;;;;;;;7.38;4.95;;;20.30;53.20;;;;;;4952276;28;87631;-86
2022/01/19 06:34:25;;;;;;;6.13;5.03;;;20.40;53.30;;;;;;4951325;28;88011;-83
2022/01/19 06:36:53;;;;;;;6.82;5.15;;;20.40;53.10;;;;;;4950921;28;87745;-84
2022/01/19 06:39:19;;;;;;;6.28;4.90;;;20.40;52.90;;;;;;4951684;28;87846;-85
2022/01/19 06:41:45;;;;;;;9.15;6.00;;;20.40;52.80;;;;;;4950787;28;87657;-85
2022/01/19 06:44:12;;;;;;;8.23;5.32;;;20.40;52.40;;;;;;4950518;28;87445;-86
2022/01/19 06:46:37;;;;;;;7.95;5.60;;;20.40;51.90;;;;;;4951493;28;87301;-85
2022/01/19 06:49:03;;;;;;;7.60;5.07;;;20.40;52.00;;;;;;4951209;28;87432;-83
2022/01/19 06:51:29;;;;;;;86.93;17.45;;;20.40;52.20;;;;;;4950736;28;87014;-85
2022/01/19 06:53:54;;;;;;;43.05;11.65;;;20.40;51.60;;;;;;4947934;28;89848;-82
2022/01/19 06:56:20;;;;;;;31.45;9.48;;;20.40;52.10;;;;;;4949616;28;87513;-84
2022/01/19 06:58:46;;;;;;;24.27;7.28;;;20.40;54.40;;;;;;4950565;28;87960;-87
2022/01/19 07:01:12;;;;;;;20.58;7.68;;;20.40;53.90;;;;;;4950692;28;87480;-86
2022/01/19 07:03:38;;;;;;;38.88;11.38;;;20.40;54.20;;;;;;4950970;28;87896;-84
2022/01/19 07:06:15;;;;;;;35.45;10.15;;;20.40;54.30;;;;;;4952817;28;87732;-84
2022/01/19 07:08:41;;;;;;;22.20;7.95;;;20.40;54.20;;;;;;4951126;28;87002;-83
2022/01/19 07:11:07;;;;;;;27.92;8.40;;;20.40;54.20;;;;;;4950543;28;86813;-84
2022/01/19 07:13:33;;;;;;;27.17;8.88;;;20.40;54.50;;;;;;4948894;28;87855;-81
2022/01/19 07:15:58;;;;;;;30.85;9.40;;;20.40;54.30;;;;;;4951517;28;88421;-83
2022/01/19 07:18:24;;;;;;;38.40;10.48;;;20.50;52.20;;;;;;4950263;28;88805;-82
2022/01/19 07:20:50;;;;;;;31.10;9.50;;;20.50;52.00;;;;;;4948053;28;88736;-81
2022/01/19 07:23:15;;;;;;;37.13;9.43;;;20.50;52.00;;;;;;4949794;28;88091;-83
2022/01/19 07:25:41;;;;;;;38.92;11.60;;;20.60;54.00;;;;;;4948884;28;88476;-82
2022/01/19 07:28:10;;;;;;;41.88;12.65;;;20.60;54.70;;;;;;4953210;28;87376;-83
2022/01/19 07:30:36;;;;;;;;;;;20.60;53.70;;;;;;4955987;28;87562;-83
2022/01/19 07:33:03;;;;;;;36.47;10.80;;;20.60;56.50;;;;;;4956236;28;88012;-82
2022/01/19 07:35:28;;;;;;;37.63;10.95;;;20.70;53.10;;;;;;4949051;28;88616;-81
2022/01/19 07:37:54;;;;;;;42.72;11.57;;;20.70;53.60;;;;;;4952859;28;87067;-81
2022/01/19 07:40:20;;;;;;;28.90;10.55;;;20.70;53.90;;;;;;4952523;28;87886;-82
2022/01/19 07:42:46;;;;;;;30.52;10.68;;;20.70;54.00;;;;;;4951378;28;89571;-83
2022/01/19 07:45:11;;;;;;;35.00;11.35;;;20.70;54.30;;;;;;4951587;28;88157;-82
2022/01/19 07:47:37;;;;;;;34.55;10.32;;;20.70;50.80;;;;;;4952760;28;88284;-82
2022/01/19 07:50:11;;;;;;;37.08;10.25;;;20.70;51.40;;;;;;4953210;28;87537;-82
2022/01/19 07:52:37;;;;;;;31.55;10.43;;;20.70;51.00;;;;;;4930543;28;88032;-82
2022/01/19 07:55:02;;;;;;;31.77;10.20;;;20.70;51.00;;;;;;4956110;28;87821;-80
2022/01/19 07:57:28;;;;;;;30.45;9.45;;;20.70;51.00;;;;;;4951226;28;87738;-82
2022/01/19 07:59:54;;;;;;;32.85;10.35;;;20.70;51.70;;;;;;4951182;28;86930;-79
2022/01/19 08:02:20;;;;;;;29.65;8.93;;;20.70;52.00;;;;;;4951272;28;89283;-82
2022/01/19 08:04:46;;;;;;;32.67;9.30;;;20.70;52.20;;;;;;4952560;28;87719;-84
2022/01/19 08:07:11;;;;;;;25.95;9.43;;;20.70;52.20;;;;;;4948607;28;88465;-83
2022/01/19 08:09:37;;;;;;;30.52;9.07;;;20.70;52.50;;;;;;4951858;28;87021;-84
2022/01/19 08:12:04;;;;;;;19.52;7.53;;;20.70;52.60;;;;;;4965894;28;89114;-85
2022/01/19 08:14:30;;;;;;;24.92;8.77;;;20.60;52.70;;;;;;4951639;28;87707;-82
2022/01/19 08:16:56;;;;;;;25.02;8.02;;;20.70;52.70;;;;;;4951413;28;87421;-82
2022/01/19 08:19:25;;;;;;;29.15;10.05;;;20.70;52.80;;;;;;4953366;28;87444;-83
2022/01/19 08:21:52;;;;;;;25.33;8.27;;;20.70;52.90;;;;;;4952525;28;88134;-82
2022/01/19 08:24:17;;;;;;;26.77;8.63;;;20.70;53.00;;;;;;4952937;28;87652;-85
2022/01/19 08:26:43;;;;;;;25.92;8.52;;;20.70;53.00;;;;;;4953602;28;87938;-84
2022/01/19 08:29:09;;;;;;;32.45;7.80;;;20.70;52.90;;;;;;4953088;28;87833;-82
2022/01/19 08:31:38;;;;;;;23.08;7.85;;;20.70;53.20;;;;;;4952833;28;88796;-82
2022/01/19 08:34:06;;;;;;;22.77;8.07;;;20.70;53.20;;;;;;4952674;28;88262;-82
2022/01/19 08:36:32;;;;;;;20.85;8.73;;;20.70;52.90;;;;;;4952313;28;88037;-82
2022/01/19 08:38:57;;;;;;;26.05;8.20;;;20.70;52.90;;;;;;4951677;28;87351;-81
2022/01/19 08:41:23;;;;;;;22.40;7.68;;;20.70;52.80;;;;;;4951792;28;88065;-82
2022/01/19 08:43:49;;;;;;;21.48;8.45;;;20.70;53.00;;;;;;4951437;28;87586;-81
2022/01/19 08:46:15;;;;;;;23.33;8.38;;;20.70;52.60;;;;;;4952102;28;87651;-82
2022/01/19 08:48:41;;;;;;;23.00;7.80;;;20.70;52.70;;;;;;4952740;28;87550;-81
2022/01/19 08:51:07;;;;;;;19.13;7.50;;;20.70;52.90;;;;;;4952342;28;88031;-83
2022/01/19 08:53:33;;;;;;;20.55;7.30;;;20.60;52.90;;;;;;4952120;28;87943;-85
2022/01/19 08:55:59;;;;;;;24.63;8.25;;;20.60;52.90;;;;;;4951974;28;88389;-84
2022/01/19 08:58:24;;;;;;;22.17;7.60;;;20.60;52.90;;;;;;4950760;28;89523;-86
2022/01/19 09:00:50;;;;;;;20.75;7.53;;;20.60;52.90;;;;;;4951212;28;90999;-86
2022/01/19 09:03:17;;;;;;;20.60;7.45;;;20.70;52.90;;;;;;4950528;28;90463;-85
2022/01/19 09:05:43;;;;;;;21.30;8.65;;;20.60;52.60;;;;;;4952374;28;87879;-85
2022/01/19 09:08:09;;;;;;;21.45;7.13;;;20.60;53.00;;;;;;4950692;28;87665;-86
2022/01/19 09:10:36;;;;;;;19.95;7.40;;;20.60;53.00;;;;;;4951091;28;87805;-87
2022/01/19 09:13:02;;;;;;;24.35;7.43;;;20.60;53.10;;;;;;4951301;28;87322;-83
2022/01/19 09:15:27;;;;;;;17.08;7.10;;;20.60;52.90;;;;;;4950966;28;87470;-84
2022/01/19 09:17:53;;;;;;;20.25;7.25;;;20.60;52.90;;;;;;4951862;28;87706;-87
2022/01/19 09:20:27;;;;;;;21.23;7.65;;;20.60;52.60;;;;;;4950957;28;88476;-85
2022/01/19 09:22:53;;;;;;;17.52;7.95;;;20.60;52.50;;;;;;4949123;28;88704;-85
2022/01/19 09:25:18;;;;;;;18.27;7.53;;;20.60;52.70;;;;;;4951194;28;87624;-86
2022/01/19 09:27:45;;;;;;;19.13;6.90;;;20.60;52.80;;;;;;4950963;28;87677;-86
2022/01/19 09:30:17;;;;;;;19.40;7.13;;;20.60;52.90;;;;;;4951713;28;87860;-85
2022/01/19 09:32:54;;;;;;;21.35;7.70;;;20.60;52.80;;;;;;4951949;28;87927;-87
2022/01/19 09:35:24;;;;;;;17.45;7.10;;;20.60;52.90;;;;;;4952077;28;87987;-87
2022/01/19 09:37:50;;;;;;;18.60;7.25;;;20.60;52.90;;;;;;4952371;28;86846;-85
2022/01/19 09:40:15;;;;;;;15.48;6.50;;;20.60;53.40;;;;;;4951001;28;87823;-85
2022/01/19 09:42:47;;;;;;;17.38;6.63;;;20.50;52.80;;;;;;4938186;28;90426;-84
2022/01/19 09:45:13;;;;;;;16.40;6.75;;;20.50;52.80;;;;;;4948636;28;88435;-86
2022/01/19 09:47:39;;;;;;;16.02;6.72;;;20.50;52.80;;;;;;4950884;28;87857;-83
2022/01/19 09:50:14;;;;;;;16.45;6.47;;;20.50;52.90;;;;;;4947936;28;89663;-85
2022/01/19 09:52:41;;;;;;;18.25;6.70;;;20.60;52.90;;;;;;4941916;28;87532;-82
2022/01/19 09:55:07;;;;;;;14.63;6.47;;;20.50;53.00;;;;;;4947606;28;87759;-85
2022/01/19 09:57:34;;;;;;;17.55;6.70;;;20.50;53.00;;;;;;4947209;28;87844;-84
2022/01/19 09:59:59;;;;;;;19.48;7.00;;;20.50;52.90;;;;;;4949387;28;88062;-82
2022/01/19 10:02:25;;;;;;;16.15;6.25;;;20.50;53.00;;;;;;4949638;28;87750;-85
2022/01/19 10:04:51;;;;;;;17.48;6.82;;;20.50;52.70;;;;;;4950028;28;87343;-82
2022/01/19 10:07:22;;;;;;;15.40;6.32;;;20.50;52.80;;;;;;4938567;28;89861;-82
2022/01/19 10:10:06;;;;;;;13.13;6.53;;;20.50;52.90;;;;;;4948719;28;89161;-85
2022/01/19 10:18:29;;;;;;;15.55;5.90;;;20.60;52.80;;;;;;4950586;28;88468;-84
2022/01/19 10:21:08;;;;;;;14.05;6.10;;;20.60;52.80;;;;;;4950983;28;88167;-84
2022/01/19 10:23:39;;;;;;;20.70;6.45;;;20.60;52.90;;;;;;4949319;28;87991;-83
2022/01/19 10:26:14;;;;;;;16.30;6.63;;;20.60;53.10;;;;;;4950015;28;87042;-84
2022/01/19 10:28:55;;;;;;;15.20;6.80;;;20.60;53.00;;;;;;4949902;28;87251;-86
2022/01/19 10:31:21;;;;;;;14.60;6.15;;;20.50;53.10;;;;;;4950479;28;87844;-82
2022/01/19 10:34:09;;;;;;;13.32;5.80;;;20.50;52.80;;;;;;4948280;28;87721;-82
2022/01/19 10:36:47;;;;;;;11.80;5.75;;;20.60;52.70;;;;;;4950062;28;88885;-85
2022/01/19 10:39:13;;;;;;;10.70;5.57;;;20.60;52.80;;;;;;4950147;28;88127;-84
2022/01/19 10:42:00;;;;;;;14.77;6.32;;;20.50;52.70;;;;;;4950675;28;88139;-82
2022/01/19 10:44:44;;;;;;;11.40;5.60;;;20.50;53.00;;;;;;4950411;28;87878;-83
2022/01/19 10:47:10;;;;;;;12.95;5.95;;;20.50;53.00;;;;;;4933759;28;87867;-85
2022/01/19 10:49:54;;;;;;;16.58;6.35;;;20.50;52.90;;;;;;4950815;28;87218;-85
2022/01/19 10:52:34;;;;;;;18.92;6.18;;;20.50;52.00;;;;;;4949773;28;87911;-82
2022/01/19 10:55:00;;;;;;;;;;;20.60;52.80;;;;;;4950025;28;87407;-87
2022/01/19 10:57:28;;;;;;;13.23;6.40;;;20.60;53.00;;;;;;4952081;28;87385;-86
2022/01/19 11:00:23;;;;;;;12.05;5.93;;;20.60;52.80;;;;;;4950530;28;87208;-83
2022/01/19 11:02:52;;;;;;;13.00;5.72;;;20.50;53.10;;;;;;4949464;28;89574;-86
2022/01/19 11:05:38;;;;;;;12.68;5.80;;;20.60;53.20;;;;;;4950375;28;89145;-87
2022/01/19 11:08:04;;;;;;;12.60;5.63;;;20.50;53.20;;;;;;4948947;28;87825;-84
2022/01/19 11:10:31;;;;;;;14.18;5.50;;;20.60;53.30;;;;;;4949971;28;87470;-86
2022/01/19 11:12:57;;;;;;;17.60;6.03;;;20.60;53.50;;;;;;4950514;28;87604;-84
2022/01/19 11:15:22;;;;;;;13.45;5.78;;;20.50;53.40;;;;;;4949317;28;90084;-85
2022/01/19 11:17:53;;;;;;;12.48;5.05;;;20.50;53.50;;;;;;4965653;28;87011;-83
2022/01/19 11:20:23;;;;;;;14.77;5.53;;;20.60;53.40;;;;;;4949246;28;86572;-86
2022/01/19 11:23:11;;;;;;;12.98;7.15;;;20.60;52.80;;;;;;4950152;28;87776;-87
2022/01/19 11:25:50;;;;;;;11.70;6.05;;;20.60;51.70;;;;;;4949782;28;89504;-83
2022/01/19 11:28:24;;;;;;;15.37;5.37;;;20.60;52.60;;;;;;4947426;28;88444;-83
2022/01/19 11:31:09;;;;;;;13.90;5.60;;;20.60;52.90;;;;;;4949942;28;87738;-84
2022/01/19 11:33:47;;;;;;;9.95;5.60;;;20.50;52.90;;;;;;4950306;28;87873;-87
2022/01/19 11:36:23;;;;;;;11.52;5.82;;;20.50;53.00;;;;;;4949687;28;87667;-87
2022/01/19 11:38:51;;;;;;;11.43;5.28;;;20.50;53.00;;;;;;4948345;28;87263;-85
2022/01/19 11:41:16;;;;;;;11.45;5.30;;;20.50;52.90;;;;;;4949750;28;87447;-85
2022/01/19 11:43:54;;;;;;;12.57;5.00;;;20.50;52.80;;;;;;4950505;28;88195;-84
2022/01/19 11:46:36;;;;;;;11.40;5.60;;;20.50;52.80;;;;;;4950521;28;87163;-85
2022/01/19 11:49:04;;;;;;;12.68;5.57;;;20.60;52.80;;;;;;4935803;28;86990;-85
2022/01/19 11:51:35;;;;;;;12.15;5.57;;;20.50;52.60;;;;;;4949866;28;87299;-86
2022/01/19 11:54:14;;;;;;;9.88;5.30;;;20.50;52.60;;;;;;4947630;28;90148;-84
2022/01/19 11:56:58;;;;;;;11.27;4.80;;;20.50;52.70;;;;;;4950399;28;88826;-85
2022/01/19 11:59:47;;;;;;;11.00;5.15;;;20.50;52.70;;;;;;4950248;28;87463;-83
2022/01/19 12:02:24;;;;;;;9.52;4.47;;;20.50;52.50;;;;;;4948960;28;87667;-84
2022/01/19 12:05:04;;;;;;;9.00;4.78;;;20.50;52.50;;;;;;4949092;28;88844;-86
2022/01/19 12:07:52;;;;;;;12.20;5.28;;;20.50;52.60;;;;;;4950199;28;87798;-85
2022/01/19 12:10:21;;;;;;;10.00;5.20;;;20.50;52.60;;;;;;4949655;28;87669;-84
2022/01/19 12:13:17;;;;;;;12.10;4.70;;;20.50;52.60;;;;;;4952101;28;86999;-85
2022/01/19 12:16:05;;;;;;;11.43;5.22;;;20.50;52.60;;;;;;4952359;28;88216;-83
2022/01/19 12:18:42;;;;;;;12.15;5.25;;;20.50;52.70;;;;;;4951850;28;87933;-83
2022/01/19 12:21:13;;;;;;;8.00;4.93;;;20.50;52.60;;;;;;4952236;28;89419;-84
2022/01/19 12:23:40;;;;;;;9.27;4.70;;;20.50;52.50;;;;;;4951880;28;87426;-84
2022/01/19 12:26:07;;;;;;;11.10;4.80;;;20.50;52.50;;;;;;4940993;28;91706;-84
2022/01/19 12:28:43;;;;;;;10.35;4.70;;;20.50;52.60;;;;;;4952017;28;88349;-85
2022/01/19 12:31:25;;;;;;;10.13;4.80;;;20.50;52.60;;;;;;4942655;28;86965;-81
2022/01/19 12:34:02;;;;;;;10.48;4.75;;;20.50;52.70;;;;;;4952790;28;88383;-85
2022/01/19 12:36:51;;;;;;;11.98;5.05;;;20.50;52.60;;;;;;4951917;28;88153;-86
2022/01/19 12:39:25;;;;;;;10.18;5.05;;;20.50;52.50;;;;;;4953196;28;87469;-84
2022/01/19 12:42:13;;;;;;;8.82;4.40;;;20.50;52.50;;;;;;4952308;28;87608;-84
2022/01/19 12:44:42;;;;;;;10.15;4.72;;;20.50;52.80;;;;;;4951871;28;87897;-87
2022/01/19 12:47:34;;;;;;;10.75;5.13;;;20.50;52.60;;;;;;4951648;28;89358;-87
2022/01/19 12:52:30;;;;;;;8.38;4.82;;;20.50;52.60;;;;;;4952003;28;88139;-85
2022/01/19 12:54:57;;;;;;;10.55;4.68;;;20.50;52.50;;;;;;4952532;28;87706;-86
2022/01/19 12:57:22;;;;;;;9.35;4.60;;;20.50;52.30;;;;;;4967500;28;90506;-86
2022/01/19 12:59:50;;;;;;;10.10;4.70;;;20.60;52.40;;;;;;4954933;28;87953;-84
2022/01/19 13:02:20;;;;;;;10.10;4.43;;;20.60;52.40;;;;;;4954777;28;87263;-83
2022/01/19 13:04:51;;;;;;;;;;;20.60;52.30;;;;;;4953904;28;86816;-86
2022/01/19 13:07:23;;;;;;;7.97;4.55;;;20.60;52.80;;;;;;4952943;28;87730;-85
2022/01/19 13:10:03;;;;;;;8.35;4.90;;;20.60;52.60;;;;;;4952067;28;87870;-85
2022/01/19 13:12:56;;;;;;;8.27;4.40;;;20.60;52.60;;;;;;4951828;28;88349;-84
2022/01/19 13:15:33;;;;;;;8.70;4.85;;;20.60;52.60;;;;;;4951751;28;87923;-86
2022/01/19 13:17:59;;;;;;;10.27;4.75;;;20.60;52.80;;;;;;4951555;28;89032;-87
2022/01/19 13:20:24;;;;;;;11.23;4.30;;;20.60;52.60;;;;;;4951593;28;87336;-83
2022/01/19 13:22:54;;;;;;;9.27;4.43;;;20.60;52.80;;;;;;4952038;28;87800;-85
2022/01/19 13:25:25;;;;;;;10.68;4.72;;;20.60;52.60;;;;;;4945235;28;89491;-84
2022/01/19 13:27:55;;;;;;;8.90;4.20;;;20.60;52.60;;;;;;4951574;28;88140;-86
2022/01/19 13:30:22;;;;;;;10.52;5.10;;;20.60;52.60;;;;;;4951352;28;87828;-85
2022/01/19 13:32:47;;;;;;;11.07;4.60;;;20.60;52.60;;;;;;4950749;28;88037;-86
2022/01/19 13:35:14;;;;;;;9.70;4.30;;;20.60;52.60;;;;;;4950615;28;87564;-85
2022/01/19 13:37:46;;;;;;;8.40;4.70;;;20.70;52.90;;;;;;4951114;28;88721;-86
2022/01/19 13:40:25;;;;;;;8.40;4.10;;;20.60;53.00;;;;;;4951360;28;88256;-85
2022/01/19 13:43:18;;;;;;;10.05;3.80;;;20.60;53.10;;;;;;4951160;28;87024;-86
2022/01/19 13:50:47;;;;;;;8.85;3.92;;;20.60;52.90;;;;;;4951250;28;87282;-85
2022/01/19 13:53:15;;;;;;;11.00;4.82;;;20.70;52.90;;;;;;4951544;28;87120;-85
2022/01/19 13:55:41;;;;;;;7.10;4.38;;;20.70;52.50;;;;;;4949476;28;89598;-83
2022/01/19 13:58:12;;;;;;;14.85;5.20;;;20.70;52.80;;;;;;4951173;28;87946;-85
2022/01/19 14:00:59;;;;;;;9.98;5.22;;;20.70;52.40;;;;;;4948654;28;90108;-85
2022/01/19 14:03:43;;;;;;;9.30;4.85;;;20.80;52.30;;;;;;4949814;28;88949;-84
2022/01/19 14:06:20;;;;;;;7.32;4.35;;;20.80;52.50;;;;;;4950486;28;87818;-85
2022/01/19 14:08:46;;;;;;;11.30;4.10;;;20.80;52.90;;;;;;4950659;28;87753;-84
2022/01/19 14:11:22;;;;;;;10.32;3.92;;;20.80;52.90;;;;;;4945975;28;88113;-83
2022/01/19 14:14:01;;;;;;;7.38;3.17;;;20.80;53.40;;;;;;4950668;28;87790;-83
2022/01/19 14:16:38;;;;;;;35.07;11.03;;;20.90;54.50;;;;;;4950608;28;87764;-84
2022/01/19 14:19:34;;;;;;;56.10;15.90;;;20.90;53.90;;;;;;4949558;28;88153;-80
2022/01/19 14:22:24;;;;;;;35.28;9.70;;;20.90;52.70;;;;;;4956685;28;87390;-82
2022/01/19 14:24:53;;;;;;;36.03;9.88;;;20.90;54.20;;;;;;4920052;28;87786;-84
2022/01/19 14:27:25;;;;;;;20.65;8.05;;;20.90;53.20;;;;;;4954477;28;87371;-82